Pagrindinis puslapis
METAR-TAF:

METAR-TAF

Oro uostai :

North Perry Airport

Hollywood, Florida, Jungtinės Amerikos Valstijos

platuma: 25-59-56N, ilguma: 080-14-28W, Aukštis: 2 m

Dabartinis oras

Ataskaita buvo paskelbta 15 minutes, ne 22:28 UTC
Vėjas 15 kt iš Šiaurės su gūsio iki 22 kt
Temperatūra 18°C
Drėgmė 94%
Slėgis 1013 hPa
Matomumas: 16.1 km
Mažai debesys ne aukštis 1000 ft
Su prošvaistėmis ne aukštis 2700 ft
Apsiniaukę ne aukštis 7000 ft
lietus

METAR: KHWO 062228Z 36015G22KT 10SM -RA FEW010 BKN027 OVC070 18/17 A2990 RMK AO2 LTG DSNT E-S P0005 T01780167 $

Laikas: 17:43 (22:43 UTC)


TAF: trūkstamas

Orai ataskaitas ir orų prognozės (METAR, TAF).

turimą stotys yra geltonos ir raudonos taškus žemėlapyje.

Perkelti pele per norėdami pamatyti stoties vardą.

Tada spustelėkite, norėdami matyti oro stebėjimo ir prognozės.

Norėdami pakeisti žemėlapį: spustelėkite ant žalios mygtukų su juodo kryžiaus žemyn,; žalią mygtuką su brūkšneliu, jei norite nutolinti; arba žalių rodyklių gretimoms žemėlapius.


METAR-TAF: